sensor_id;sensor_type;location;lat;lon;timestamp;pressure;altitude;pressure_sealevel;temperature;humidity
80149;BME280;69473;42.426;26.644;2023-05-10T00:00:37;99498.59;;;9.06;69.35
80149;BME280;69473;42.426;26.644;2023-05-10T00:03:02;99495.84;;;8.89;69.57
80149;BME280;69473;42.426;26.644;2023-05-10T00:05:30;99495.91;;;8.95;70.24
80149;BME280;69473;42.426;26.644;2023-05-10T00:07:56;99490.75;;;8.95;70.27
80149;BME280;69473;42.426;26.644;2023-05-10T00:10:22;99495.91;;;8.95;69.32
80149;BME280;69473;42.426;26.644;2023-05-10T00:12:47;99495.88;;;8.92;70.56
80149;BME280;69473;42.426;26.644;2023-05-10T00:15:13;99494.13;;;8.88;70.08
80149;BME280;69473;42.426;26.644;2023-05-10T00:17:38;99490.66;;;8.89;70.41
80149;BME280;69473;42.426;26.644;2023-05-10T00:20:04;99495.00;;;8.92;69.45
80149;BME280;69473;42.426;26.644;2023-05-10T00:22:31;99487.84;;;8.69;70.98
80149;BME280;69473;42.426;26.644;2023-05-10T00:24:57;99502.66;;;8.83;69.85
80149;BME280;69473;42.426;26.644;2023-05-10T00:27:23;99494.00;;;8.79;70.04
80149;BME280;69473;42.426;26.644;2023-05-10T00:29:48;99488.75;;;8.73;70.65
80149;BME280;69473;42.426;26.644;2023-05-10T00:32:14;99500.00;;;8.78;69.89
80149;BME280;69473;42.426;26.644;2023-05-10T00:34:39;99493.81;;;8.64;70.17
80149;BME280;69473;42.426;26.644;2023-05-10T00:37:05;99498.84;;;8.56;70.97
80149;BME280;69473;42.426;26.644;2023-05-10T00:39:31;99490.16;;;8.49;71.83
80149;BME280;69473;42.426;26.644;2023-05-10T00:41:56;99486.75;;;8.50;70.99
80149;BME280;69473;42.426;26.644;2023-05-10T00:44:22;99491.94;;;8.53;70.92
80149;BME280;69473;42.426;26.644;2023-05-10T00:46:49;99495.56;;;8.68;69.74
80149;BME280;69473;42.426;26.644;2023-05-10T00:49:15;99491.19;;;8.61;69.91
80149;BME280;69473;42.426;26.644;2023-05-10T00:51:41;99492.00;;;8.60;70.60
80149;BME280;69473;42.426;26.644;2023-05-10T00:54:14;99495.44;;;8.59;70.40
80149;BME280;69473;42.426;26.644;2023-05-10T00:56:40;99496.22;;;8.53;70.62
80149;BME280;69473;42.426;26.644;2023-05-10T00:59:07;99505.56;;;8.43;70.94
80149;BME280;69473;42.426;26.644;2023-05-10T01:01:33;99500.53;;;8.52;71.01
80149;BME280;69473;42.426;26.644;2023-05-10T01:03:59;99496.84;;;8.35;70.81
80149;BME280;69473;42.426;26.644;2023-05-10T01:06:25;99484.19;;;8.52;70.43
80149;BME280;69473;42.426;26.644;2023-05-10T01:08:50;99490.19;;;8.52;70.64
80149;BME280;69473;42.426;26.644;2023-05-10T01:11:16;99483.34;;;8.54;70.18
80149;BME280;69473;42.426;26.644;2023-05-10T01:13:43;99483.41;;;8.58;69.63
80149;BME280;69473;42.426;26.644;2023-05-10T01:16:13;99493.56;;;8.45;69.15
80149;BME280;69473;42.426;26.644;2023-05-10T01:18:40;99490.13;;;8.46;69.54
80149;BME280;69473;42.426;26.644;2023-05-10T01:21:32;99494.22;;;8.32;69.92
80149;BME280;69473;42.426;26.644;2023-05-10T01:35:45;99481.25;;;8.29;69.58
80149;BME280;69473;42.426;26.644;2023-05-10T01:38:42;99470.75;;;8.17;69.99
80149;BME280;69473;42.426;26.644;2023-05-10T01:44:07;99476.47;;;7.97;70.49
80149;BME280;69473;42.426;26.644;2023-05-10T01:46:37;99475.63;;;7.98;70.67
80149;BME280;69473;42.426;26.644;2023-05-10T01:49:10;99472.19;;;7.99;71.21
80149;BME280;69473;42.426;26.644;2023-05-10T01:51:45;99472.31;;;8.05;70.50
80149;BME280;69473;42.426;26.644;2023-05-10T01:54:14;99467.00;;;7.96;70.88
80149;BME280;69473;42.426;26.644;2023-05-10T01:56:44;99482.44;;;7.93;70.67
80149;BME280;69473;42.426;26.644;2023-05-10T01:59:17;99481.03;;;8.14;70.47
80149;BME280;69473;42.426;26.644;2023-05-10T02:01:45;99470.63;;;8.07;70.65
80149;BME280;69473;42.426;26.644;2023-05-10T02:04:16;99471.53;;;8.13;70.74
80149;BME280;69473;42.426;26.644;2023-05-10T02:06:43;99470.63;;;8.07;70.71
80149;BME280;69473;42.426;26.644;2023-05-10T02:09:11;99472.34;;;8.08;70.56
80149;BME280;69473;42.426;26.644;2023-05-10T02:11:38;99456.59;;;7.90;71.17
80149;BME280;69473;42.426;26.644;2023-05-10T02:14:06;99461.84;;;7.96;70.92
80149;BME280;69473;42.426;26.644;2023-05-10T02:16:35;99460.81;;;7.85;71.17
80149;BME280;69473;42.426;26.644;2023-05-10T02:19:02;99461.53;;;7.78;71.39
80149;BME280;69473;42.426;26.644;2023-05-10T02:21:29;99464.88;;;7.71;72.19
80149;BME280;69473;42.426;26.644;2023-05-10T02:23:57;99463.09;;;7.67;72.35
80149;BME280;69473;42.426;26.644;2023-05-10T02:26:25;99447.38;;;7.51;72.06
80149;BME280;69473;42.426;26.644;2023-05-10T02:28:53;99465.69;;;7.67;72.13
80149;BME280;69473;42.426;26.644;2023-05-10T02:31:21;99457.06;;;7.66;72.19
80149;BME280;69473;42.426;26.644;2023-05-10T02:33:48;99454.22;;;7.49;72.84
80149;BME280;69473;42.426;26.644;2023-05-10T02:36:16;99466.56;;;7.69;72.11
80149;BME280;69473;42.426;26.644;2023-05-10T02:38:43;99457.94;;;7.67;71.69
80149;BME280;69473;42.426;26.644;2023-05-10T02:41:11;99465.03;;;7.80;71.20
80149;BME280;69473;42.426;26.644;2023-05-10T02:43:39;99460.84;;;7.88;70.86
80149;BME280;69473;42.426;26.644;2023-05-10T02:46:06;99462.47;;;7.81;71.47
80149;BME280;69473;42.426;26.644;2023-05-10T02:48:31;99463.56;;;7.97;71.07
80149;BME280;69473;42.426;26.644;2023-05-10T02:51:05;99451.38;;;7.87;71.20
80149;BME280;69473;42.426;26.644;2023-05-10T02:53:35;99451.50;;;7.96;70.71
80149;BME280;69473;42.426;26.644;2023-05-10T02:56:05;99448.16;;;8.03;70.99
80149;BME280;69473;42.426;26.644;2023-05-10T02:58:36;99460.16;;;7.98;70.85
80149;BME280;69473;42.426;26.644;2023-05-10T03:01:02;99461.78;;;7.93;71.18
80149;BME280;69473;42.426;26.644;2023-05-10T03:03:27;99464.19;;;7.81;71.24
80149;BME280;69473;42.426;26.644;2023-05-10T03:05:53;99463.56;;;7.97;70.57
80149;BME280;69473;42.426;26.644;2023-05-10T03:08:23;99462.69;;;7.95;70.70
80149;BME280;69473;42.426;26.644;2023-05-10T03:14:07;99460.06;;;7.92;71.39
80149;BME280;69473;42.426;26.644;2023-05-10T03:16:44;99463.66;;;8.03;71.06
80149;BME280;69473;42.426;26.644;2023-05-10T03:19:43;99466.28;;;8.05;70.85
80149;BME280;69473;42.426;26.644;2023-05-10T03:22:24;99465.47;;;8.07;70.85
80149;BME280;69473;42.426;26.644;2023-05-10T03:24:54;99468.72;;;7.97;71.36
80149;BME280;69473;42.426;26.644;2023-05-10T03:27:22;99468.88;;;8.06;70.66
80149;BME280;69473;42.426;26.644;2023-05-10T03:29:50;99478.41;;;8.12;70.26
80149;BME280;69473;42.426;26.644;2023-05-10T03:32:16;99474.28;;;8.25;70.44
80149;BME280;69473;42.426;26.644;2023-05-10T03:34:42;99473.25;;;8.10;70.00
80149;BME280;69473;42.426;26.644;2023-05-10T03:37:09;99479.47;;;8.25;70.50
80149;BME280;69473;42.426;26.644;2023-05-10T03:39:34;99476.19;;;8.35;70.19
80149;BME280;69473;42.426;26.644;2023-05-10T03:42:00;99476.31;;;8.41;68.99
80149;BME280;69473;42.426;26.644;2023-05-10T03:44:25;99481.41;;;8.38;70.67
80149;BME280;69473;42.426;26.644;2023-05-10T03:46:51;99484.78;;;8.37;69.37
80149;BME280;69473;42.426;26.644;2023-05-10T03:49:17;99484.97;;;8.46;69.39
80149;BME280;69473;42.426;26.644;2023-05-10T03:51:43;99493.97;;;8.76;68.61
80149;BME280;69473;42.426;26.644;2023-05-10T03:54:08;99486.47;;;8.97;67.50
80149;BME280;69473;42.426;26.644;2023-05-10T03:56:34;99485.03;;;9.24;67.92
80149;BME280;69473;42.426;26.644;2023-05-10T03:58:59;99481.00;;;9.54;66.21
80149;BME280;69473;42.426;26.644;2023-05-10T04:01:25;99492.44;;;9.80;66.17
80149;BME280;69473;42.426;26.644;2023-05-10T04:03:51;99489.91;;;9.85;65.55
80149;BME280;69473;42.426;26.644;2023-05-10T04:06:17;99497.72;;;9.92;64.29
80149;BME280;69473;42.426;26.644;2023-05-10T04:08:42;99493.69;;;10.28;62.78
80149;BME280;69473;42.426;26.644;2023-05-10T04:11:09;99503.91;;;10.10;64.52
80149;BME280;69473;42.426;26.644;2023-05-10T04:13:35;99501.81;;;9.66;65.25
80149;BME280;69473;42.426;26.644;2023-05-10T04:16:01;99501.69;;;9.51;65.19
80149;BME280;69473;42.426;26.644;2023-05-10T04:18:26;99491.72;;;10.00;65.01
80149;BME280;69473;42.426;26.644;2023-05-10T04:20:52;99496.66;;;9.66;64.99
80149;BME280;69473;42.426;26.644;2023-05-10T04:23:18;99483.41;;;9.35;65.53
80149;BME280;69473;42.426;26.644;2023-05-10T04:25:43;99503.22;;;9.33;65.68
80149;BME280;69473;42.426;26.644;2023-05-10T04:28:08;99504.13;;;9.40;66.94
80149;BME280;69473;42.426;26.644;2023-05-10T04:30:34;99499.75;;;9.31;66.11
80149;BME280;69473;42.426;26.644;2023-05-10T04:33:00;99494.72;;;9.46;67.20
80149;BME280;69473;42.426;26.644;2023-05-10T04:35:27;99497.34;;;9.48;66.62
80149;BME280;69473;42.426;26.644;2023-05-10T04:37:53;99494.78;;;9.53;66.44
80149;BME280;69473;42.426;26.644;2023-05-10T04:40:19;99490.47;;;9.53;66.73
80149;BME280;69473;42.426;26.644;2023-05-10T04:42:45;99498.34;;;9.64;66.05
80149;BME280;69473;42.426;26.644;2023-05-10T04:45:12;99498.44;;;9.73;65.50
80149;BME280;69473;42.426;26.644;2023-05-10T04:47:37;99494.25;;;9.92;65.58
80149;BME280;69473;42.426;26.644;2023-05-10T04:50:03;99496.97;;;10.09;65.07
80149;BME280;69473;42.426;26.644;2023-05-10T04:52:29;99488.53;;;10.28;64.14
80149;BME280;69473;42.426;26.644;2023-05-10T04:54:55;99487.78;;;10.52;63.53
80149;BME280;69473;42.426;26.644;2023-05-10T04:57:20;99478.34;;;10.71;62.18
80149;BME280;69473;42.426;26.644;2023-05-10T04:59:46;99482.69;;;10.66;62.92
80149;BME280;69473;42.426;26.644;2023-05-10T05:02:12;99488.81;;;10.90;61.51
80149;BME280;69473;42.426;26.644;2023-05-10T05:04:37;99486.34;;;11.28;60.27
80149;BME280;69473;42.426;26.644;2023-05-10T05:07:03;99490.63;;;11.18;60.74
80149;BME280;69473;42.426;26.644;2023-05-10T05:09:28;99498.44;;;11.26;60.79
80149;BME280;69473;42.426;26.644;2023-05-10T05:11:54;99501.03;;;11.27;59.61
80149;BME280;69473;42.426;26.644;2023-05-10T05:14:19;99485.44;;;11.18;60.78
80149;BME280;69473;42.426;26.644;2023-05-10T05:16:50;99489.75;;;11.18;61.06
80149;BME280;69473;42.426;26.644;2023-05-10T05:19:16;99502.81;;;11.41;60.07
80149;BME280;69473;42.426;26.644;2023-05-10T05:21:42;99504.59;;;12.06;57.91
80149;BME280;69473;42.426;26.644;2023-05-10T05:24:07;99510.66;;;11.99;58.44
80149;BME280;69473;42.426;26.644;2023-05-10T05:26:33;99513.25;;;11.93;59.14
80149;BME280;69473;42.426;26.644;2023-05-10T05:28:58;99501.97;;;11.66;59.65
80149;BME280;69473;42.426;26.644;2023-05-10T05:31:24;99501.09;;;11.73;59.67
80149;BME280;69473;42.426;26.644;2023-05-10T05:33:49;99486.38;;;11.57;59.56
80149;BME280;69473;42.426;26.644;2023-05-10T05:36:15;99508.88;;;11.60;59.60
80149;BME280;69473;42.426;26.644;2023-05-10T05:38:40;99516.63;;;11.46;60.72
80149;BME280;69473;42.426;26.644;2023-05-10T05:41:06;99508.88;;;11.47;61.03
80149;BME280;69473;42.426;26.644;2023-05-10T05:43:31;99508.88;;;11.63;60.47
80149;BME280;69473;42.426;26.644;2023-05-10T05:45:57;99508.88;;;11.58;60.40
80149;BME280;69473;42.426;26.644;2023-05-10T05:48:25;99504.56;;;11.57;61.41
80149;BME280;69473;42.426;26.644;2023-05-10T05:50:54;99511.47;;;11.55;61.51
80149;BME280;69473;42.426;26.644;2023-05-10T05:53:21;99512.38;;;11.98;59.92
80149;BME280;69473;42.426;26.644;2023-05-10T05:55:57;99523.63;;;12.23;58.76
80149;BME280;69473;42.426;26.644;2023-05-10T05:58:24;99525.38;;;12.28;58.42
80149;BME280;69473;42.426;26.644;2023-05-10T06:00:50;99527.09;;;11.86;60.76
80149;BME280;69473;42.426;26.644;2023-05-10T06:03:17;99535.69;;;11.57;62.42
80149;BME280;69473;42.426;26.644;2023-05-10T06:05:43;99533.97;;;11.50;62.24
80149;BME280;69473;42.426;26.644;2023-05-10T06:08:09;99539.13;;;11.48;62.33
80149;BME280;69473;42.426;26.644;2023-05-10T06:10:35;99546.94;;;11.50;62.21
80149;BME280;69473;42.426;26.644;2023-05-10T06:13:01;99526.09;;;11.30;62.01
80149;BME280;69473;42.426;26.644;2023-05-10T06:15:27;99539.13;;;11.35;62.36
80149;BME280;69473;42.426;26.644;2023-05-10T06:17:52;99539.13;;;11.35;62.65
80149;BME280;69473;42.426;26.644;2023-05-10T06:20:18;99526.22;;;11.90;61.07
80149;BME280;69473;42.426;26.644;2023-05-10T06:22:43;99525.34;;;11.82;61.12
80149;BME280;69473;42.426;26.644;2023-05-10T06:25:09;99533.09;;;11.65;61.63
80149;BME280;69473;42.426;26.644;2023-05-10T06:27:35;99532.25;;;11.69;61.68
80149;BME280;69473;42.426;26.644;2023-05-10T06:30:01;99537.44;;;11.79;61.30
80149;BME280;69473;42.426;26.644;2023-05-10T06:32:28;99519.28;;;11.79;60.41
80149;BME280;69473;42.426;26.644;2023-05-10T06:34:53;99534.03;;;12.11;61.27
80149;BME280;69473;42.426;26.644;2023-05-10T06:37:19;99548.72;;;12.35;60.50
80149;BME280;69473;42.426;26.644;2023-05-10T06:39:44;99546.09;;;12.46;59.72
80149;BME280;69473;42.426;26.644;2023-05-10T06:42:10;99538.31;;;12.44;59.86
80149;BME280;69473;42.426;26.644;2023-05-10T06:44:35;99542.69;;;12.29;58.47
80149;BME280;69473;42.426;26.644;2023-05-10T06:47:01;99537.47;;;12.41;59.17
80149;BME280;69473;42.426;26.644;2023-05-10T06:49:27;99540.94;;;12.43;57.56
80149;BME280;69473;42.426;26.644;2023-05-10T06:51:52;99537.44;;;12.53;57.21
80149;BME280;69473;42.426;26.644;2023-05-10T06:54:18;99537.47;;;12.47;57.91
80149;BME280;69473;42.426;26.644;2023-05-10T06:56:44;99537.38;;;12.81;55.29
80149;BME280;69473;42.426;26.644;2023-05-10T06:59:09;99530.56;;;12.37;56.74
80149;BME280;69473;42.426;26.644;2023-05-10T07:01:35;99548.75;;;12.26;57.00
80149;BME280;69473;42.426;26.644;2023-05-10T07:04:00;99535.72;;;12.47;56.21
80149;BME280;69473;42.426;26.644;2023-05-10T07:06:26;99532.97;;;12.95;54.67
80149;BME280;69473;42.426;26.644;2023-05-10T07:08:52;99497.59;;;12.48;54.52
80149;BME280;69473;42.426;26.644;2023-05-10T07:11:18;99546.03;;;12.77;54.87
80149;BME280;69473;42.426;26.644;2023-05-10T07:13:43;99553.00;;;12.75;53.61
80149;BME280;69473;42.426;26.644;2023-05-10T07:16:11;99550.44;;;12.62;54.91
80149;BME280;69473;42.426;26.644;2023-05-10T07:18:37;99552.09;;;12.82;55.63
80149;BME280;69473;42.426;26.644;2023-05-10T07:21:03;99542.13;;;13.76;52.77
80149;BME280;69473;42.426;26.644;2023-05-10T07:23:28;99554.88;;;14.11;52.36
80149;BME280;69473;42.426;26.644;2023-05-10T07:25:55;99531.88;;;13.48;52.20
80149;BME280;69473;42.426;26.644;2023-05-10T07:28:23;99531.03;;;13.49;53.88
80149;BME280;69473;42.426;26.644;2023-05-10T07:30:50;99538.50;;;13.95;53.34
80149;BME280;69473;42.426;26.644;2023-05-10T07:33:15;99538.81;;;13.55;53.22
80149;BME280;69473;42.426;26.644;2023-05-10T07:35:41;99536.50;;;12.85;55.62
80149;BME280;69473;42.426;26.644;2023-05-10T07:38:07;99539.97;;;12.79;55.28
80149;BME280;69473;42.426;26.644;2023-05-10T07:40:33;99533.72;;;13.32;54.36
80149;BME280;69473;42.426;26.644;2023-05-10T07:42:59;99524.63;;;13.93;52.36
80149;BME280;69473;42.426;26.644;2023-05-10T07:45:28;99521.94;;;14.04;53.21
80149;BME280;69473;42.426;26.644;2023-05-10T07:47:54;99522.69;;;14.18;52.05
80149;BME280;69473;42.426;26.644;2023-05-10T07:50:19;99526.13;;;14.22;51.27
80149;BME280;69473;42.426;26.644;2023-05-10T07:52:46;99533.88;;;14.29;51.93
80149;BME280;69473;42.426;26.644;2023-05-10T07:55:12;99535.63;;;14.26;51.34
80149;BME280;69473;42.426;26.644;2023-05-10T07:57:38;99530.47;;;14.23;52.00
80149;BME280;69473;42.426;26.644;2023-05-10T08:00:04;99522.03;;;14.84;50.04
80149;BME280;69473;42.426;26.644;2023-05-10T08:02:29;99523.25;;;15.25;49.69
80149;BME280;69473;42.426;26.644;2023-05-10T08:04:55;99512.25;;;15.68;49.21
80149;BME280;69473;42.426;26.644;2023-05-10T08:07:21;99513.16;;;16.18;46.56
80149;BME280;69473;42.426;26.644;2023-05-10T08:09:46;99513.75;;;16.35;45.92
80149;BME280;69473;42.426;26.644;2023-05-10T08:12:12;99511.66;;;16.05;47.96
80149;BME280;69473;42.426;26.644;2023-05-10T08:14:37;99519.66;;;15.96;47.79
80149;BME280;69473;42.426;26.644;2023-05-10T08:17:03;99530.97;;;15.36;47.19
80149;BME280;69473;42.426;26.644;2023-05-10T08:19:29;99524.66;;;14.83;48.25
80149;BME280;69473;42.426;26.644;2023-05-10T08:21:55;99536.09;;;14.71;48.61
80149;BME280;69473;42.426;26.644;2023-05-10T08:24:23;99543.13;;;14.63;49.41
80149;BME280;69473;42.426;26.644;2023-05-10T08:26:49;99528.78;;;15.00;47.82
80149;BME280;69473;42.426;26.644;2023-05-10T08:29:15;99543.97;;;15.37;47.88
80149;BME280;69473;42.426;26.644;2023-05-10T08:31:41;99529.72;;;16.19;46.93
80149;BME280;69473;42.426;26.644;2023-05-10T08:34:07;99527.63;;;16.39;46.73
80149;BME280;69473;42.426;26.644;2023-05-10T08:36:32;99527.78;;;15.77;46.38
80149;BME280;69473;42.426;26.644;2023-05-10T08:38:58;99529.53;;;15.75;46.31
80149;BME280;69473;42.426;26.644;2023-05-10T08:41:24;99538.22;;;15.77;45.13
80149;BME280;69473;42.426;26.644;2023-05-10T08:43:53;99539.81;;;15.22;47.06
80149;BME280;69473;42.426;26.644;2023-05-10T08:46:21;99531.44;;;16.20;44.50
80149;BME280;69473;42.426;26.644;2023-05-10T08:48:49;99531.06;;;15.88;45.15
80149;BME280;69473;42.426;26.644;2023-05-10T08:51:19;99542.28;;;15.36;45.58
80149;BME280;69473;42.426;26.644;2023-05-10T08:53:47;99534.69;;;15.16;46.97
80149;BME280;69473;42.426;26.644;2023-05-10T08:56:13;99544.78;;;14.70;49.10
80149;BME280;69473;42.426;26.644;2023-05-10T08:58:40;99541.38;;;14.65;48.72
80149;BME280;69473;42.426;26.644;2023-05-10T09:01:07;99545.38;;;14.95;49.03
80149;BME280;69473;42.426;26.644;2023-05-10T09:03:34;99544.88;;;14.61;48.42
80149;BME280;69473;42.426;26.644;2023-05-10T09:06:00;99545.09;;;14.39;49.78
80149;BME280;69473;42.426;26.644;2023-05-10T09:08:26;99546.91;;;15.14;48.16
80149;BME280;69473;42.426;26.644;2023-05-10T09:10:54;99546.91;;;15.13;49.11
80149;BME280;69473;42.426;26.644;2023-05-10T09:13:21;99543.16;;;15.34;48.16
80149;BME280;69473;42.426;26.644;2023-05-10T09:15:48;99545.50;;;15.54;47.30
80149;BME280;69473;42.426;26.644;2023-05-10T09:18:13;99537.25;;;15.21;46.84
80149;BME280;69473;42.426;26.644;2023-05-10T09:20:40;99541.91;;;14.94;47.46
80149;BME280;69473;42.426;26.644;2023-05-10T09:23:06;99538.09;;;15.20;45.59
80149;BME280;69473;42.426;26.644;2023-05-10T09:25:32;99537.22;;;15.24;47.08
80149;BME280;69473;42.426;26.644;2023-05-10T09:28:06;99546.22;;;14.98;46.70
80149;BME280;69473;42.426;26.644;2023-05-10T09:30:31;99525.34;;;14.98;46.46
80149;BME280;69473;42.426;26.644;2023-05-10T09:32:59;99544.31;;;15.14;47.32
80149;BME280;69473;42.426;26.644;2023-05-10T09:35:27;99549.16;;;15.40;46.83
80149;BME280;69473;42.426;26.644;2023-05-10T09:37:55;99539.50;;;16.06;44.88
80149;BME280;69473;42.426;26.644;2023-05-10T09:40:23;99540.13;;;15.63;45.75
80149;BME280;69473;42.426;26.644;2023-05-10T09:42:54;99543.09;;;15.40;47.03
80149;BME280;69473;42.426;26.644;2023-05-10T09:45:22;99538.09;;;15.86;44.63
80149;BME280;69473;42.426;26.644;2023-05-10T09:47:48;99546.59;;;15.98;44.07
80149;BME280;69473;42.426;26.644;2023-05-10T09:50:13;99536.34;;;15.85;44.64
80149;BME280;69473;42.426;26.644;2023-05-10T09:52:57;99537.28;;;16.35;45.41
80149;BME280;69473;42.426;26.644;2023-05-10T09:57:59;99530.66;;;16.62;43.77
80149;BME280;69473;42.426;26.644;2023-05-10T10:00:26;99525.53;;;17.03;43.47
80149;BME280;69473;42.426;26.644;2023-05-10T10:02:57;99524.63;;;17.05;43.35
80149;BME280;69473;42.426;26.644;2023-05-10T10:05:31;99526.88;;;16.32;45.61
80149;BME280;69473;42.426;26.644;2023-05-10T10:07:58;99518.19;;;16.30;43.77
80149;BME280;69473;42.426;26.644;2023-05-10T10:10:27;99525.38;;;16.16;43.34
80149;BME280;69473;42.426;26.644;2023-05-10T10:12:54;99523.78;;;16.57;42.50
80149;BME280;69473;42.426;26.644;2023-05-10T10:15:21;99509.50;;;16.75;42.08
80149;BME280;69473;42.426;26.644;2023-05-10T10:17:48;99514.94;;;16.16;43.65
80149;BME280;69473;42.426;26.644;2023-05-10T10:20:14;99520.31;;;15.50;44.51
80149;BME280;69473;42.426;26.644;2023-05-10T10:22:40;99515.09;;;15.48;45.94
80149;BME280;69473;42.426;26.644;2023-05-10T10:25:07;99518.81;;;15.93;44.01
80149;BME280;69473;42.426;26.644;2023-05-10T10:27:47;99512.25;;;15.68;45.02
80149;BME280;69473;42.426;26.644;2023-05-10T10:30:42;99513.44;;;16.03;45.88
80149;BME280;69473;42.426;26.644;2023-05-10T10:35:36;99504.47;;;16.16;43.65
80149;BME280;69473;42.426;26.644;2023-05-10T10:38:02;99516.00;;;16.06;44.56
80149;BME280;69473;42.426;26.644;2023-05-10T10:40:30;99494.53;;;15.25;45.28
80149;BME280;69473;42.426;26.644;2023-05-10T10:42:57;99519.56;;;15.41;45.20
80149;BME280;69473;42.426;26.644;2023-05-10T10:45:24;99515.44;;;15.85;44.97
80149;BME280;69473;42.426;26.644;2023-05-10T10:48:21;99518.31;;;15.68;44.88
80149;BME280;69473;42.426;26.644;2023-05-10T10:50:47;99526.59;;;15.36;44.66
80149;BME280;69473;42.426;26.644;2023-05-10T10:53:13;99516.97;;;15.99;44.12
80149;BME280;69473;42.426;26.644;2023-05-10T10:55:48;99516.13;;;15.98;43.73
80149;BME280;69473;42.426;26.644;2023-05-10T10:58:33;99516.78;;;16.11;43.17
80149;BME280;69473;42.426;26.644;2023-05-10T11:01:18;99516.78;;;16.11;43.30
80149;BME280;69473;42.426;26.644;2023-05-10T11:06:34;99504.38;;;16.22;43.49
80149;BME280;69473;42.426;26.644;2023-05-10T11:09:07;99502.66;;;16.21;43.63
80149;BME280;69473;42.426;26.644;2023-05-10T11:11:34;99504.88;;;16.43;42.89
80149;BME280;69473;42.426;26.644;2023-05-10T11:14:06;99507.34;;;16.01;44.18
80149;BME280;69473;42.426;26.644;2023-05-10T11:16:42;99505.41;;;16.60;43.34
80149;BME280;69473;42.426;26.644;2023-05-10T11:19:13;99503.53;;;17.12;44.01
80149;BME280;69473;42.426;26.644;2023-05-10T11:22:12;99504.72;;;16.01;44.32
80149;BME280;69473;42.426;26.644;2023-05-10T11:24:39;99512.41;;;16.10;44.99
80149;BME280;69473;42.426;26.644;2023-05-10T11:27:05;99497.22;;;16.33;42.62
80149;BME280;69473;42.426;26.644;2023-05-10T11:29:31;99495.03;;;16.07;43.82
80149;BME280;69473;42.426;26.644;2023-05-10T11:31:58;99506.22;;;16.17;43.34
80149;BME280;69473;42.426;26.644;2023-05-10T11:34:27;99499.59;;;16.91;43.80
80149;BME280;69473;42.426;26.644;2023-05-10T11:36:54;99500.16;;;16.13;43.84
80149;BME280;69473;42.426;26.644;2023-05-10T11:39:21;99483.56;;;16.16;43.71
80149;BME280;69473;42.426;26.644;2023-05-10T11:41:48;99494.59;;;16.33;42.61
80149;BME280;69473;42.426;26.644;2023-05-10T11:44:14;99489.78;;;17.02;43.48
80149;BME280;69473;42.426;26.644;2023-05-10T11:46:40;99492.28;;;17.08;43.63
80149;BME280;69473;42.426;26.644;2023-05-10T11:49:07;99507.34;;;16.52;43.72
80149;BME280;69473;42.426;26.644;2023-05-10T11:51:34;99483.06;;;16.44;43.25
80149;BME280;69473;42.426;26.644;2023-05-10T11:54:05;99491.19;;;16.76;43.27
80149;BME280;69473;42.426;26.644;2023-05-10T11:56:33;99492.94;;;16.74;43.01
80149;BME280;69473;42.426;26.644;2023-05-10T11:58:58;99498.75;;;16.44;41.57
80149;BME280;69473;42.426;26.644;2023-05-10T12:01:26;99486.13;;;15.65;42.67
80149;BME280;69473;42.426;26.644;2023-05-10T12:03:54;99481.00;;;16.14;42.51
80149;BME280;69473;42.426;26.644;2023-05-10T12:06:21;99475.06;;;16.98;41.41
80149;BME280;69473;42.426;26.644;2023-05-10T12:08:49;99481.69;;;17.14;43.25
80149;BME280;69473;42.426;26.644;2023-05-10T12:11:18;99478.75;;;17.28;43.33
80149;BME280;69473;42.426;26.644;2023-05-10T12:13:46;99482.50;;;17.55;41.37
80149;BME280;69473;42.426;26.644;2023-05-10T12:16:23;99488.41;;;16.37;42.76
80149;BME280;69473;42.426;26.644;2023-05-10T12:18:53;99473.16;;;16.13;43.36
80149;BME280;69473;42.426;26.644;2023-05-10T12:21:20;99478.66;;;15.98;44.62
80149;BME280;69473;42.426;26.644;2023-05-10T12:23:48;99454.25;;;15.99;45.12
80149;BME280;69473;42.426;26.644;2023-05-10T12:26:15;99479.19;;;16.18;44.21
80149;BME280;69473;42.426;26.644;2023-05-10T12:28:40;99479.31;;;16.10;43.68
80149;BME280;69473;42.426;26.644;2023-05-10T12:31:06;99477.28;;;15.75;45.66
80149;BME280;69473;42.426;26.644;2023-05-10T12:33:37;99471.50;;;16.09;44.59
80149;BME280;69473;42.426;26.644;2023-05-10T12:36:09;99468.94;;;16.04;44.66
80149;BME280;69473;42.426;26.644;2023-05-10T12:38:39;99465.38;;;16.56;43.29
80149;BME280;69473;42.426;26.644;2023-05-10T12:41:14;99456.22;;;16.34;43.43
80149;BME280;69473;42.426;26.644;2023-05-10T12:43:40;99449.25;;;16.79;43.93
80149;BME280;69473;42.426;26.644;2023-05-10T12:46:16;99457.53;;;17.00;43.07
80149;BME280;69473;42.426;26.644;2023-05-10T12:48:43;99454.38;;;16.85;44.57
80149;BME280;69473;42.426;26.644;2023-05-10T12:51:09;99450.41;;;17.08;43.65
80149;BME280;69473;42.426;26.644;2023-05-10T12:53:37;99434.16;;;16.49;42.59
80149;BME280;69473;42.426;26.644;2023-05-10T12:56:03;99443.03;;;16.38;43.25
80149;BME280;69473;42.426;26.644;2023-05-10T12:58:28;99456.97;;;16.40;44.28
80149;BME280;69473;42.426;26.644;2023-05-10T13:00:54;99449.53;;;16.64;44.00
80149;BME280;69473;42.426;26.644;2023-05-10T13:03:22;99443.13;;;17.19;44.18
80149;BME280;69473;42.426;26.644;2023-05-10T13:05:47;99442.94;;;16.88;44.28
80149;BME280;69473;42.426;26.644;2023-05-10T13:08:13;99451.44;;;16.11;45.25
80149;BME280;69473;42.426;26.644;2023-05-10T13:10:39;99456.19;;;15.87;46.90
80149;BME280;69473;42.426;26.644;2023-05-10T13:13:05;99434.53;;;15.81;47.11
80149;BME280;69473;42.426;26.644;2023-05-10T13:15:31;99438.56;;;15.44;46.51
80149;BME280;69473;42.426;26.644;2023-05-10T13:17:56;99421.41;;;15.82;46.88
80149;BME280;69473;42.426;26.644;2023-05-10T13:20:22;99422.69;;;16.11;46.23